< < Back
Terminal Aerodrome Forecast


Current Version              Previous Versions:   1  2  3  4  5  6  7  8  9  

Terminal Aerodrome Forecast

307
FTUS42 KJAX 290520
TAFGNV
TAF
KGNV 290520Z 2906/3006 00000KT P6SM BKN250
      TEMPO 2908/2912 3SM BR BKN015
     FM291400 34005KT P6SM SCT030
     FM291800 29008KT P6SM VCSH BKN040=

Latest METAR

805
SAUS70 KWBC 291800 RRG
MTRGNV
METAR KGNV 291753Z 06006KT 10SM FEW044 34/24 A2994 RMK AO2 SLP133
T03390244 10344 20250 58017 $


USA.gov is the U.S. government's official web portal to all federal, state and local government web resources and services.